Time;durP1;ratioP1;P1;durP2;ratioP2;P2;SDS_P1;SDS_P2;PMS_P1;PMS_P2;Temp;Humidity;BMP_temperature;BMP_pressure;BME280_temperature;BME280_humidity;BME280_pressure;Samples;Min_cycle;Max_cycle;Signal;HPM_P1;HPM_P2
2022/11/03 00:01:50;;;;;;;7.83;5.37;;;10.80;41.30;;;;;;10489089;28;20228;-78
2022/11/03 00:06:55;;;;;;;5.40;4.90;;;10.80;41.20;;;;;;10490847;28;20232;-78
2022/11/03 00:11:58;;;;;;;6.17;5.50;;;10.70;41.40;;;;;;10486416;28;20317;-80
2022/11/03 00:17:03;;;;;;;6.17;5.47;;;10.70;41.50;;;;;;10489872;28;20224;-79
2022/11/03 00:22:06;;;;;;;6.20;5.30;;;10.70;41.30;;;;;;10484104;28;20232;-78
2022/11/03 00:27:09;;;;;;;6.57;5.50;;;10.70;41.40;;;;;;10482424;28;20236;-78
2022/11/03 00:32:13;;;;;;;5.73;5.20;;;10.70;41.60;;;;;;10488337;28;20240;-77
2022/11/03 00:37:17;;;;;;;6.50;5.73;;;10.60;41.50;;;;;;10483357;28;20701;-79
2022/11/03 00:42:20;;;;;;;5.30;4.80;;;10.60;41.40;;;;;;10482973;28;20296;-79
2022/11/03 00:47:24;;;;;;;6.50;5.77;;;10.60;41.20;;;;;;10489389;28;20232;-78
2022/11/03 00:52:27;;;;;;;5.80;5.30;;;10.50;41.20;;;;;;10486138;28;20258;-80
2022/11/03 00:57:30;;;;;;;5.83;5.30;;;10.50;41.30;;;;;;10492471;28;20289;-77
2022/11/03 01:02:35;;;;;;;6.27;4.80;;;10.50;41.50;;;;;;10483705;28;20232;-80
2022/11/03 01:07:38;;;;;;;5.80;5.20;;;10.40;41.30;;;;;;10485641;28;20617;-77
2022/11/03 01:12:41;;;;;;;6.40;5.40;;;10.40;41.40;;;;;;10480454;28;20659;-79
2022/11/03 01:17:46;;;;;;;6.63;5.30;;;10.30;41.30;;;;;;10481344;28;20235;-79
2022/11/03 01:22:50;;;;;;;5.53;4.93;;;10.30;41.50;;;;;;10493945;28;20229;-79
2022/11/03 01:27:53;;;;;;;4.47;4.07;;;10.20;41.50;;;;;;10483291;28;20229;-77
2022/11/03 01:32:58;;;;;;;4.93;4.50;;;10.20;41.60;;;;;;10490136;28;20286;-79
2022/11/03 01:38:01;;;;;;;5.00;4.53;;;10.20;41.60;;;;;;10485520;28;20790;-79
2022/11/03 01:43:18;;;;;;;5.43;4.60;;;10.20;41.50;;;;;;10490090;28;20248;-80
2022/11/03 01:48:23;;;;;;;4.57;4.17;;;10.20;41.50;;;;;;10488174;28;20719;-77
2022/11/03 01:53:28;;;;;;;4.73;4.10;;;10.10;41.60;;;;;;10484341;28;20244;-79
2022/11/03 01:58:37;;;;;;;4.73;4.20;;;10.10;41.60;;;;;;10481146;28;20236;-79
2022/11/03 02:03:46;;;;;;;4.87;4.37;;;10.10;41.40;;;;;;10481758;28;20232;-80
2022/11/03 02:08:54;;;;;;;4.80;4.40;;;10.10;41.50;;;;;;10487782;28;20256;-77
2022/11/03 02:13:57;;;;;;;4.40;4.00;;;10.10;41.50;;;;;;10487930;28;20232;-79
2022/11/03 02:19:04;;;;;;;3.77;3.47;;;10.00;41.50;;;;;;10486030;28;20233;-78
2022/11/03 02:24:13;;;;;;;4.27;3.87;;;10.00;41.50;;;;;;10493725;28;20240;-80
2022/11/03 02:29:18;;;;;;;4.23;3.90;;;10.00;41.50;;;;;;10484890;28;20244;-78
2022/11/03 02:34:28;;;;;;;3.57;3.27;;;9.90;42.40;;;;;;10494018;28;20224;-78
2022/11/03 02:39:38;;;;;;;3.43;3.13;;;9.90;42.30;;;;;;10490420;28;20239;-80
2022/11/03 02:44:44;;;;;;;3.67;3.37;;;9.90;43.10;;;;;;10492461;28;20232;-80
2022/11/03 02:49:49;;;;;;;4.17;3.37;;;9.80;42.40;;;;;;10502412;28;20681;-79
2022/11/03 02:54:53;;;;;;;5.37;3.57;;;9.80;42.40;;;;;;10493162;28;20259;-77
2022/11/03 03:00:04;;;;;;;3.07;2.87;;;9.80;42.50;;;;;;10487943;28;21179;-79
2022/11/03 03:05:11;;;;;;;3.80;3.50;;;9.70;42.30;;;;;;10495435;28;20240;-78
2022/11/03 03:10:18;;;;;;;3.43;3.13;;;9.70;42.20;;;;;;10495591;28;20244;-79
2022/11/03 03:15:26;;;;;;;3.60;3.30;;;9.70;42.20;;;;;;10487335;28;20228;-77
2022/11/03 03:20:33;;;;;;;3.87;3.57;;;9.70;42.30;;;;;;10487816;28;20232;-78
2022/11/03 03:25:41;;;;;;;3.17;2.87;;;9.60;42.30;;;;;;10483892;28;20231;-79
2022/11/03 03:30:48;;;;;;;3.67;3.37;;;9.60;42.30;;;;;;10494434;28;20243;-77
2022/11/03 03:35:54;;;;;;;4.80;4.27;;;9.60;42.30;;;;;;10483268;28;20224;-79
2022/11/03 03:40:59;;;;;;;4.10;3.70;;;9.50;42.30;;;;;;10492199;28;20228;-81
2022/11/03 03:46:10;;;;;;;3.77;3.47;;;9.50;42.20;;;;;;10491782;28;20226;-78
2022/11/03 03:51:16;;;;;;;3.37;3.10;;;9.40;42.00;;;;;;10488882;28;20235;-78
2022/11/03 03:56:23;;;;;;;3.67;3.07;;;9.40;42.00;;;;;;10487358;28;20239;-77
2022/11/03 04:01:28;;;;;;;3.10;2.90;;;9.30;42.10;;;;;;10493008;28;20235;-80
2022/11/03 04:06:31;;;;;;;2.63;2.43;;;9.30;42.20;;;;;;10493367;28;20239;-80
2022/11/03 04:22:17;;;;;;;2.73;2.53;;;9.10;41.90;;;;;;10495115;28;20236;-80
2022/11/03 04:27:29;;;;;;;2.77;2.57;;;9.10;42.10;;;;;;10494013;28;20235;-78
2022/11/03 04:32:34;;;;;;;3.03;2.83;;;9.00;42.20;;;;;;10490896;28;20232;-79
2022/11/03 04:37:38;;;;;;;2.67;2.47;;;9.00;42.40;;;;;;10495673;28;20226;-80
2022/11/03 04:42:49;;;;;;;3.43;3.20;;;9.00;42.50;;;;;;10491946;28;20232;-79
2022/11/03 04:47:53;;;;;;;5.87;3.33;;;9.00;42.50;;;;;;10493649;28;20323;-78
2022/11/03 04:52:58;;;;;;;2.80;2.63;;;9.00;42.50;;;;;;10493768;28;20228;-78
2022/11/03 04:58:10;;;;;;;3.00;2.80;;;8.90;42.40;;;;;;10483686;28;20250;-81
2022/11/03 05:03:20;;;;;;;2.73;2.53;;;8.80;42.40;;;;;;10487561;28;20236;-80
2022/11/03 05:08:24;;;;;;;3.30;3.10;;;8.80;42.50;;;;;;10489870;28;20652;-78
2022/11/03 05:13:28;;;;;;;5.43;3.00;;;8.80;42.50;;;;;;10487441;28;20231;-78
2022/11/03 05:18:35;;;;;;;2.93;2.73;;;8.70;42.60;;;;;;10486041;28;20235;-80
2022/11/03 05:23:40;;;;;;;2.77;2.57;;;8.70;42.90;;;;;;10495228;28;20232;-80
2022/11/03 05:28:47;;;;;;;2.83;2.63;;;8.70;43.00;;;;;;10498552;28;20220;-80
2022/11/03 05:33:53;;;;;;;2.80;2.60;;;8.70;43.20;;;;;;10495172;28;20256;-80
2022/11/03 05:39:01;;;;;;;3.77;2.60;;;8.70;43.20;;;;;;10496057;28;20297;-81
2022/11/03 05:44:22;;;;;;;3.10;2.80;;;8.70;43.40;;;;;;10493728;28;20254;-80
2022/11/03 05:49:28;;;;;;;2.83;2.57;;;8.70;43.50;;;;;;10498077;28;20239;-81
2022/11/03 05:54:34;;;;;;;2.23;2.13;;;8.70;43.40;;;;;;10490183;28;20737;-81
2022/11/03 05:59:38;;;;;;;6.87;2.90;;;8.70;43.50;;;;;;10505516;28;20232;-80
2022/11/03 06:04:42;;;;;;;8.43;3.00;;;8.70;43.40;;;;;;10507168;28;20236;-80
2022/11/03 06:09:45;;;;;;;9.73;3.30;;;8.70;43.70;;;;;;10502042;28;20239;-81
2022/11/03 06:14:49;;;;;;;6.30;2.87;;;8.60;43.40;;;;;;10502846;28;20728;-80
2022/11/03 06:19:55;;;;;;;2.80;2.60;;;8.60;43.60;;;;;;10503409;28;20283;-80
2022/11/03 06:25:10;;;;;;;5.93;2.77;;;8.70;44.00;;;;;;10500780;28;20285;-80
2022/11/03 06:30:24;;;;;;;8.40;3.10;;;8.60;44.00;;;;;;10499125;28;20244;-80
2022/11/03 06:35:29;;;;;;;6.33;2.87;;;8.60;44.60;;;;;;10499636;28;20229;-80
2022/11/03 06:40:37;;;;;;;16.17;3.43;;;8.70;44.30;;;;;;10499109;28;20236;-80
2022/11/03 06:45:49;;;;;;;10.73;3.23;;;8.70;44.60;;;;;;10502225;28;20235;-80
2022/11/03 06:50:54;;;;;;;15.43;2.90;;;8.70;44.70;;;;;;10499793;28;20236;-80
2022/11/03 06:55:58;;;;;;;16.17;3.30;;;8.70;44.40;;;;;;10502143;28;20275;-80
2022/11/03 07:01:03;;;;;;;7.17;3.03;;;8.70;44.10;;;;;;10495123;28;20228;-80
2022/11/03 07:06:17;;;;;;;2.83;2.67;;;8.70;44.30;;;;;;10497911;28;20286;-79
2022/11/03 07:11:22;;;;;;;3.00;2.80;;;8.70;44.90;;;;;;10494738;28;20227;-79
2022/11/03 07:16:29;;;;;;;3.13;2.83;;;8.70;44.40;;;;;;10498470;28;20228;-79
2022/11/03 07:21:37;;;;;;;9.07;3.20;;;8.70;45.40;;;;;;10499134;28;20236;-79
2022/11/03 07:26:40;;;;;;;26.47;4.33;;;8.70;45.80;;;;;;10511239;28;20644;-80
2022/11/03 07:31:44;;;;;;;3.93;3.63;;;8.80;45.10;;;;;;10495824;28;20613;-79
2022/11/03 07:36:50;;;;;;;3.80;3.50;;;8.80;44.80;;;;;;10500161;28;20251;-79
2022/11/03 07:41:58;;;;;;;5.13;4.63;;;8.90;45.10;;;;;;10498435;28;20236;-79
2022/11/03 07:47:01;;;;;;;4.27;3.90;;;8.80;44.80;;;;;;10503253;28;20303;-80
2022/11/03 07:52:11;;;;;;;4.17;3.87;;;8.90;45.00;;;;;;10495021;28;20236;-79
2022/11/03 07:57:21;;;;;;;3.47;3.20;;;8.90;45.50;;;;;;10500961;28;20224;-79
2022/11/03 08:02:31;;;;;;;3.30;3.10;;;8.90;45.90;;;;;;10496055;28;20239;-79
2022/11/03 08:07:35;;;;;;;4.03;3.73;;;9.00;46.00;;;;;;10488413;28;20228;-82
2022/11/03 08:12:39;;;;;;;21.00;4.87;;;9.10;45.80;;;;;;10484374;28;20239;-80
2022/11/03 08:17:42;;;;;;;4.27;3.97;;;9.10;45.30;;;;;;10492471;28;20908;-80
2022/11/03 08:22:46;;;;;;;8.40;6.77;;;9.10;45.40;;;;;;10488300;28;20232;-79
2022/11/03 08:28:10;;;;;;;6.20;4.40;;;9.20;46.60;;;;;;10479215;28;20551;-79
2022/11/03 08:33:13;;;;;;;4.97;4.50;;;9.30;47.20;;;;;;10482820;28;20240;-80
2022/11/03 08:38:18;;;;;;;6.07;5.47;;;9.50;46.90;;;;;;10487356;28;20239;-81
2022/11/03 08:43:21;;;;;;;5.67;5.17;;;9.60;46.70;;;;;;10482087;28;20265;-80
2022/11/03 08:48:27;;;;;;;5.70;5.30;;;9.80;46.60;;;;;;10479912;28;20235;-79
2022/11/03 08:53:31;;;;;;;6.10;5.60;;;9.90;46.80;;;;;;10484661;28;20225;-77
2022/11/03 08:58:35;;;;;;;8.30;5.50;;;10.00;45.90;;;;;;10485328;28;20262;-78
2022/11/03 09:03:38;;;;;;;5.80;5.30;;;10.10;45.80;;;;;;10485652;28;20236;-78
2022/11/03 09:08:43;;;;;;;5.30;4.90;;;10.20;46.10;;;;;;10489579;28;20227;-76
2022/11/03 09:14:06;;;;;;;6.23;5.73;;;10.30;46.20;;;;;;10490119;28;20673;-77
2022/11/03 09:19:09;;;;;;;5.93;5.37;;;10.40;46.20;;;;;;10487056;28;20236;-80
2022/11/03 09:24:13;;;;;;;9.20;8.33;;;10.50;46.40;;;;;;10487428;28;20247;-80
2022/11/03 09:29:17;;;;;;;10.23;9.20;;;10.60;47.30;;;;;;10485679;28;20236;-77
2022/11/03 09:34:20;;;;;;;9.20;8.30;;;10.70;47.10;;;;;;10494855;28;20568;-81
2022/11/03 09:39:24;;;;;;;11.90;9.47;;;10.90;47.30;;;;;;10495420;28;20231;-82
2022/11/03 09:44:28;;;;;;;10.40;9.37;;;11.00;47.90;;;;;;10501333;28;20266;-82
2022/11/03 09:49:32;;;;;;;11.17;9.67;;;11.10;47.40;;;;;;10499945;28;20230;-81
2022/11/03 09:54:38;;;;;;;11.20;9.90;;;11.30;47.90;;;;;;10494611;28;20248;-80
2022/11/03 09:59:43;;;;;;;12.30;11.00;;;11.40;48.40;;;;;;10496848;28;20236;-78
2022/11/03 10:04:47;;;;;;;11.50;10.40;;;11.50;48.30;;;;;;10497381;28;20240;-81
2022/11/03 10:09:53;;;;;;;10.30;9.30;;;11.60;47.90;;;;;;10498735;28;20220;-76
2022/11/03 10:14:56;;;;;;;11.27;10.07;;;11.70;48.50;;;;;;10497984;28;20220;-81
2022/11/03 10:20:01;;;;;;;10.07;9.07;;;11.80;47.90;;;;;;10492273;28;20233;-79
2022/11/03 10:25:34;;;;;;;10.53;9.60;;;11.80;48.10;;;;;;10480496;28;20908;-80
2022/11/03 10:30:52;;;;;;;9.30;8.50;;;11.90;49.10;;;;;;10493875;28;20231;-80
2022/11/03 10:36:24;;;;;;;8.90;8.10;;;11.90;48.80;;;;;;10495929;28;20228;-80
2022/11/03 10:41:30;;;;;;;8.90;8.17;;;12.00;48.50;;;;;;10493535;28;20239;-79
2022/11/03 10:46:33;;;;;;;8.87;8.07;;;12.00;48.10;;;;;;10485465;28;20228;-79
2022/11/03 10:51:57;;;;;;;7.90;7.20;;;12.00;47.60;;;;;;10489508;28;20319;-84
2022/11/03 10:57:02;;;;;;;8.23;7.53;;;12.00;47.80;;;;;;10495700;28;20224;-82
2022/11/03 11:02:15;;;;;;;8.20;7.50;;;12.10;47.80;;;;;;10495518;28;20235;-82
2022/11/03 11:07:23;;;;;;;7.70;6.90;;;12.10;48.00;;;;;;10496783;28;20972;-82
2022/11/03 11:12:28;;;;;;;9.20;8.30;;;12.20;47.80;;;;;;10506515;28;20243;-82
2022/11/03 11:17:48;;;;;;;8.73;7.27;;;12.30;47.90;;;;;;10502854;28;20362;-83
2022/11/03 11:22:51;;;;;;;6.53;6.03;;;12.30;48.50;;;;;;10501622;28;20229;-82
2022/11/03 11:28:10;;;;;;;8.20;7.53;;;12.40;47.50;;;;;;10499221;28;20303;-83
2022/11/03 11:33:21;;;;;;;8.60;7.87;;;12.50;48.10;;;;;;10506017;28;20229;-79
2022/11/03 11:39:04;;;;;;;7.87;7.17;;;12.60;47.90;;;;;;10499891;28;20235;-80
2022/11/03 11:44:56;;;;;;;8.50;7.70;;;12.60;48.20;;;;;;10497730;28;20236;-80
2022/11/03 11:50:30;;;;;;;8.60;7.40;;;12.70;47.90;;;;;;10500880;28;20322;-82
2022/11/03 11:55:41;;;;;;;8.17;7.47;;;12.70;47.80;;;;;;10500864;28;20315;-81
2022/11/03 12:00:56;;;;;;;9.00;8.17;;;12.80;47.60;;;;;;10501208;28;20232;-81
2022/11/03 12:06:00;;;;;;;8.10;7.33;;;12.80;47.80;;;;;;10494759;28;20236;-81
2022/11/03 12:11:05;;;;;;;8.17;7.47;;;12.80;47.40;;;;;;10498070;28;20235;-81
2022/11/03 12:16:09;;;;;;;8.73;7.90;;;12.90;47.30;;;;;;10497177;28;20825;-81
2022/11/03 12:21:35;;;;;;;9.47;8.57;;;13.00;47.30;;;;;;10489689;28;20238;-80
2022/11/03 12:26:42;;;;;;;9.20;8.30;;;13.00;47.40;;;;;;10494605;28;20232;-81
2022/11/03 12:31:47;;;;;;;9.83;8.50;;;13.10;47.60;;;;;;10497284;28;20235;-81
2022/11/03 12:36:51;;;;;;;8.70;7.90;;;13.20;47.30;;;;;;10496372;28;20240;-81
2022/11/03 12:41:58;;;;;;;9.00;8.20;;;13.20;47.40;;;;;;10494320;28;20229;-83
2022/11/03 12:47:01;;;;;;;8.50;7.77;;;13.20;47.00;;;;;;10484331;28;20235;-82
2022/11/03 12:52:07;;;;;;;8.27;7.57;;;13.30;47.00;;;;;;10486184;28;20244;-80
2022/11/03 12:57:10;;;;;;;8.13;7.47;;;13.30;47.00;;;;;;10495543;28;20258;-78
2022/11/03 13:02:14;;;;;;;9.37;8.57;;;13.30;47.30;;;;;;10497036;28;20239;-79
2022/11/03 13:07:18;;;;;;;9.17;7.53;;;13.30;47.30;;;;;;10493528;28;20241;-78
2022/11/03 13:12:31;;;;;;;8.40;7.70;;;13.40;48.10;;;;;;10498284;28;20722;-79
2022/11/03 13:17:35;;;;;;;9.20;8.30;;;13.50;48.50;;;;;;10500529;28;20745;-80
2022/11/03 13:22:59;;;;;;;9.07;8.27;;;13.60;47.70;;;;;;10502658;28;20733;-79
2022/11/03 13:28:03;;;;;;;9.47;8.57;;;13.70;47.20;;;;;;10498997;28;20632;-80
2022/11/03 13:33:07;;;;;;;9.13;8.33;;;13.80;46.90;;;;;;10496591;28;20768;-78
2022/11/03 13:38:13;;;;;;;9.33;8.53;;;13.70;46.90;;;;;;10486339;28;20235;-84
2022/11/03 13:43:16;;;;;;;8.93;8.13;;;13.70;47.10;;;;;;10491827;28;20236;-82
2022/11/03 13:48:20;;;;;;;9.73;8.93;;;13.70;47.00;;;;;;10495910;28;20232;-82
2022/11/03 13:53:46;;;;;;;9.10;8.33;;;13.70;46.90;;;;;;10490960;28;20220;-83
2022/11/03 13:59:10;;;;;;;9.67;8.77;;;13.70;47.20;;;;;;10494064;28;20590;-81
2022/11/03 14:04:30;;;;;;;9.33;8.53;;;13.70;47.30;;;;;;10499682;28;20247;-82
2022/11/03 14:09:52;;;;;;;10.27;9.10;;;13.70;47.20;;;;;;10489004;28;20347;-80
2022/11/03 14:14:59;;;;;;;10.10;9.10;;;13.70;47.60;;;;;;10488797;28;20232;-83
2022/11/03 14:20:03;;;;;;;8.80;8.00;;;13.80;47.50;;;;;;10490834;28;20228;-83
2022/11/03 14:25:09;;;;;;;8.40;7.70;;;13.80;47.30;;;;;;10487263;28;20259;-82
2022/11/03 14:30:13;;;;;;;9.70;8.77;;;13.90;47.40;;;;;;10498285;28;20239;-82
2022/11/03 14:35:16;;;;;;;9.80;8.90;;;13.90;47.20;;;;;;10498251;28;20760;-82
2022/11/03 14:45:41;;;;;;;9.67;8.77;;;14.00;47.40;;;;;;10499500;28;20228;-82
2022/11/03 14:50:44;;;;;;;9.67;8.80;;;14.00;47.20;;;;;;10496075;28;20318;-82
2022/11/03 14:55:49;;;;;;;9.47;8.57;;;14.00;47.20;;;;;;10496295;28;20254;-83
2022/11/03 15:00:55;;;;;;;9.50;8.60;;;14.00;47.30;;;;;;10493798;28;20274;-82
2022/11/03 15:05:59;;;;;;;10.33;9.37;;;14.00;47.40;;;;;;10505809;28;20309;-82
2022/11/03 15:11:04;;;;;;;10.37;9.27;;;14.10;47.50;;;;;;10497436;28;20232;-80
2022/11/03 15:16:07;;;;;;;15.73;14.23;;;14.10;47.70;;;;;;10491598;28;20244;-82
2022/11/03 15:21:11;;;;;;;12.43;11.13;;;14.10;47.70;;;;;;10478377;28;20314;-82
2022/11/03 15:26:15;;;;;;;14.87;13.37;;;14.20;48.20;;;;;;10493584;28;20692;-80
2022/11/03 15:31:22;;;;;;;12.43;11.13;;;14.30;48.40;;;;;;10496995;28;20232;-82
2022/11/03 15:36:25;;;;;;;11.87;10.70;;;14.40;48.30;;;;;;10493764;28;20234;-81
2022/11/03 15:41:30;;;;;;;11.57;10.43;;;14.40;47.40;;;;;;10490455;28;20243;-81
2022/11/03 15:46:33;;;;;;;12.43;11.23;;;14.40;47.20;;;;;;10494402;28;20236;-81
2022/11/03 15:51:38;;;;;;;12.57;11.37;;;14.40;47.00;;;;;;10492112;28;20236;-82
2022/11/03 15:56:42;;;;;;;18.50;16.70;;;14.40;46.90;;;;;;10492586;28;20619;-81
2022/11/03 16:01:45;;;;;;;17.70;15.97;;;14.40;46.90;;;;;;10484337;28;20255;-80
2022/11/03 16:06:49;;;;;;;14.27;12.93;;;14.40;46.80;;;;;;10490559;28;20311;-81
2022/11/03 16:12:13;;;;;;;14.13;12.73;;;14.30;48.00;;;;;;10486817;28;20228;-82
2022/11/03 16:17:17;;;;;;;16.13;14.57;;;14.40;48.00;;;;;;10482779;28;20237;-81
2022/11/03 16:22:20;;;;;;;14.30;12.93;;;14.50;47.40;;;;;;10488786;28;20232;-82
2022/11/03 16:27:24;;;;;;;13.97;12.60;;;14.50;47.00;;;;;;10490334;28;20232;-81
2022/11/03 16:32:27;;;;;;;13.70;12.50;;;14.50;46.70;;;;;;10491829;28;20238;-82
2022/11/03 16:37:30;;;;;;;16.33;14.73;;;14.50;46.60;;;;;;10491298;28;20238;-81
2022/11/03 16:42:37;;;;;;;15.43;14.00;;;14.40;46.40;;;;;;10495346;28;20235;-80
2022/11/03 16:47:40;;;;;;;12.77;11.47;;;14.40;46.40;;;;;;10492527;28;20563;-82
2022/11/03 16:52:43;;;;;;;14.30;12.90;;;14.40;47.60;;;;;;10489164;28;20224;-80
2022/11/03 16:57:48;;;;;;;16.87;15.17;;;14.40;47.80;;;;;;10487368;28;20224;-80
2022/11/03 17:02:51;;;;;;;17.63;15.87;;;14.60;47.30;;;;;;10490618;28;20273;-80
2022/11/03 17:07:54;;;;;;;16.60;14.90;;;14.60;46.70;;;;;;10478977;28;20236;-80
2022/11/03 17:12:58;;;;;;;16.23;14.63;;;14.60;46.90;;;;;;10486739;28;20641;-80
2022/11/03 17:18:02;;;;;;;16.20;14.50;;;14.60;46.20;;;;;;10491423;28;20227;-79
2022/11/03 17:23:05;;;;;;;15.30;13.90;;;14.60;46.20;;;;;;10487702;28;20323;-80
2022/11/03 17:28:11;;;;;;;14.10;12.77;;;14.50;46.00;;;;;;10487623;28;20240;-79
2022/11/03 17:33:18;;;;;;;13.97;12.53;;;14.50;46.10;;;;;;10487049;28;20236;-79
2022/11/03 17:38:22;;;;;;;14.50;13.07;;;14.40;46.00;;;;;;10487257;28;22468;-80
2022/11/03 17:43:28;;;;;;;15.10;13.37;;;14.40;46.10;;;;;;10486118;28;20243;-79
2022/11/03 17:48:32;;;;;;;14.40;13.00;;;14.40;45.90;;;;;;10483334;28;20236;-80
2022/11/03 17:53:35;;;;;;;15.43;13.93;;;14.40;46.10;;;;;;10493610;28;20243;-78
2022/11/03 17:58:40;;;;;;;16.80;15.20;;;14.30;45.80;;;;;;10497027;28;20655;-80
2022/11/03 18:03:48;;;;;;;16.40;14.83;;;14.30;45.70;;;;;;10500886;28;20228;-78
2022/11/03 18:08:51;;;;;;;19.50;17.60;;;14.30;45.70;;;;;;10496008;28;20612;-81
2022/11/03 18:13:56;;;;;;;18.30;16.60;;;14.20;45.50;;;;;;10491447;28;20236;-79
2022/11/03 18:18:59;;;;;;;18.60;16.87;;;14.20;45.40;;;;;;10493780;28;20247;-79
2022/11/03 18:24:02;;;;;;;18.00;16.30;;;14.10;45.50;;;;;;10489981;28;20224;-80
2022/11/03 18:29:07;;;;;;;16.87;15.33;;;14.10;45.60;;;;;;10498182;28;20235;-81
2022/11/03 18:34:16;;;;;;;22.07;19.30;;;14.00;45.70;;;;;;10493275;28;20304;-81
2022/11/03 18:39:24;;;;;;;20.10;18.10;;;14.00;45.70;;;;;;10504456;28;20243;-78
2022/11/03 18:44:29;;;;;;;19.80;17.80;;;13.90;45.80;;;;;;10499133;28;20711;-78
2022/11/03 18:49:33;;;;;;;17.27;15.47;;;13.90;45.80;;;;;;10507354;28;20223;-78
2022/11/03 18:54:36;;;;;;;15.47;13.87;;;13.90;45.90;;;;;;10498094;28;20224;-79
2022/11/03 18:59:44;;;;;;;14.07;12.67;;;13.90;46.10;;;;;;10499785;28;20296;-79
2022/11/03 19:04:47;;;;;;;14.73;13.33;;;13.80;46.40;;;;;;10497224;28;20228;-79
2022/11/03 19:09:51;;;;;;;12.70;11.50;;;13.90;46.30;;;;;;10503570;28;20636;-79
2022/11/03 19:14:56;;;;;;;14.07;12.67;;;13.90;46.30;;;;;;10503084;28;20228;-79
2022/11/03 19:19:59;;;;;;;12.83;11.63;;;13.90;46.50;;;;;;10498805;28;20283;-79
2022/11/03 19:25:02;;;;;;;16.90;15.20;;;13.90;46.40;;;;;;10499196;28;20237;-79
2022/11/03 19:30:10;;;;;;;14.70;13.30;;;13.90;46.50;;;;;;10499544;28;20243;-79
2022/11/03 19:35:20;;;;;;;15.97;14.37;;;13.80;46.50;;;;;;10497666;28;20232;-79
2022/11/03 19:40:23;;;;;;;14.03;12.73;;;13.90;46.70;;;;;;10496817;28;20238;-79
2022/11/03 19:45:28;;;;;;;17.53;15.83;;;13.90;46.50;;;;;;10501793;28;20236;-79
2022/11/03 19:50:34;;;;;;;14.30;13.00;;;13.80;46.30;;;;;;10494906;28;20235;-78
2022/11/03 19:55:40;;;;;;;14.87;13.47;;;13.80;46.30;;;;;;10494928;28;20232;-77
2022/11/03 20:00:46;;;;;;;13.03;11.73;;;13.80;46.40;;;;;;10494274;28;20240;-78
2022/11/03 20:05:52;;;;;;;12.73;11.50;;;13.80;46.50;;;;;;10493555;28;20231;-76
2022/11/03 20:10:56;;;;;;;17.60;15.63;;;13.80;46.20;;;;;;10500483;28;20228;-79
2022/11/03 20:16:00;;;;;;;15.73;14.10;;;13.70;45.90;;;;;;10493129;28;20646;-78
2022/11/03 20:21:04;;;;;;;17.60;15.90;;;13.60;46.10;;;;;;10489364;28;20247;-77
2022/11/03 20:26:14;;;;;;;15.37;13.73;;;13.60;46.60;;;;;;10492284;28;20245;-78
2022/11/03 20:31:18;;;;;;;15.87;14.03;;;13.50;47.60;;;;;;10490778;28;20280;-78
2022/11/03 20:36:22;;;;;;;14.70;13.30;;;13.50;47.70;;;;;;10503380;28;20235;-80
2022/11/03 20:41:27;;;;;;;12.53;11.40;;;13.50;47.50;;;;;;10487371;28;20757;-82
2022/11/03 20:46:33;;;;;;;13.60;12.17;;;13.60;47.70;;;;;;10475989;28;20973;-81
2022/11/03 20:51:41;;;;;;;14.97;13.47;;;13.60;47.80;;;;;;10487966;28;20239;-81
2022/11/03 20:56:45;;;;;;;14.73;13.33;;;13.70;47.60;;;;;;10481022;28;20228;-82
2022/11/03 21:01:50;;;;;;;13.57;12.30;;;13.70;47.30;;;;;;10479569;28;20235;-81
2022/11/03 21:06:53;;;;;;;14.20;12.70;;;13.70;47.40;;;;;;10483639;28;20232;-82
2022/11/03 21:11:57;;;;;;;13.83;12.30;;;13.60;47.30;;;;;;10480746;28;20235;-81
2022/11/03 21:22:25;;;;;;;13.97;12.10;;;13.60;47.70;;;;;;10482392;28;20241;-82
2022/11/03 21:27:49;;;;;;;13.73;11.83;;;13.60;47.70;;;;;;10481153;28;20235;-81
2022/11/03 21:32:53;;;;;;;12.53;11.20;;;13.60;47.50;;;;;;10485908;28;20243;-81
2022/11/03 21:37:57;;;;;;;11.60;10.60;;;13.60;47.70;;;;;;10496359;28;20226;-82
2022/11/03 21:53:54;;;;;;;11.90;10.57;;;13.60;47.60;;;;;;10490770;28;20232;-81
2022/11/03 21:58:58;;;;;;;10.83;9.73;;;13.60;47.50;;;;;;10490817;28;20305;-82
2022/11/03 22:04:02;;;;;;;11.50;10.33;;;13.60;47.60;;;;;;10491035;28;20216;-82
2022/11/03 22:09:06;;;;;;;11.03;9.93;;;13.70;47.90;;;;;;10484007;28;20282;-81
2022/11/03 22:14:11;;;;;;;12.57;11.37;;;13.70;47.70;;;;;;10487179;28;20289;-82
2022/11/03 22:46:09;;;;;;;15.70;14.10;;;13.60;48.20;;;;;;10490032;28;20239;-81
2022/11/03 22:51:15;;;;;;;11.40;10.20;;;13.60;48.10;;;;;;10483671;28;20240;-81
2022/11/03 22:56:19;;;;;;;11.30;9.77;;;13.60;48.40;;;;;;10480010;28;20250;-81
2022/11/03 23:01:25;;;;;;;12.50;10.23;;;13.60;48.20;;;;;;10480040;28;20239;-82
2022/11/03 23:06:35;;;;;;;11.43;10.27;;;13.50;48.70;;;;;;10492669;28;20238;-81
2022/11/03 23:11:38;;;;;;;11.10;10.00;;;13.60;49.30;;;;;;10486483;28;20225;-81
2022/11/03 23:16:43;;;;;;;12.13;10.93;;;13.60;48.80;;;;;;10489039;28;20385;-81
2022/11/03 23:21:50;;;;;;;15.00;11.50;;;13.60;49.00;;;;;;10489196;28;20262;-81
2022/11/03 23:26:53;;;;;;;11.50;10.30;;;13.70;49.30;;;;;;10484189;28;20239;-82
2022/11/03 23:31:59;;;;;;;12.40;11.00;;;13.70;49.40;;;;;;10492605;28;20281;-82
2022/11/03 23:37:04;;;;;;;11.93;10.83;;;13.70;49.10;;;;;;10488182;28;20228;-81
2022/11/03 23:42:07;;;;;;;12.97;11.87;;;13.80;49.20;;;;;;10478015;28;20228;-81
2022/11/03 23:52:33;;;;;;;11.87;10.77;;;13.80;49.10;;;;;;10488920;28;20240;-82
